createdAt,value
2022-10-19T00:00:30.964Z,30.67
2022-10-19T00:02:57.631Z,24.20
2022-10-19T00:05:24.264Z,26.80
2022-10-19T00:07:50.903Z,21.60
2022-10-19T00:10:17.600Z,25.53
2022-10-19T00:12:44.323Z,22.50
2022-10-19T00:15:11.052Z,25.00
2022-10-19T00:17:37.725Z,21.57
2022-10-19T00:20:04.881Z,24.43
2022-10-19T00:22:31.777Z,20.23
2022-10-19T00:24:58.640Z,21.13
2022-10-19T00:27:25.390Z,22.33
2022-10-19T00:29:52.106Z,16.10
2022-10-19T00:32:18.888Z,18.10
2022-10-19T00:34:45.630Z,19.80
2022-10-19T00:37:12.343Z,23.23
2022-10-19T00:39:39.379Z,24.60
2022-10-19T00:42:06.327Z,19.60
2022-10-19T00:44:32.938Z,20.57
2022-10-19T00:47:07.910Z,22.93
2022-10-19T00:49:39.353Z,20.17
2022-10-19T00:52:12.600Z,19.90
2022-10-19T00:54:41.496Z,18.90
2022-10-19T00:57:09.694Z,25.27
2022-10-19T00:59:38.367Z,18.43
2022-10-19T01:02:06.409Z,19.67
2022-10-19T01:04:35.985Z,21.67
2022-10-19T01:07:04.908Z,16.80
2022-10-19T01:09:31.598Z,18.30
2022-10-19T01:12:15.191Z,19.30
2022-10-19T01:15:06.802Z,22.93
2022-10-19T01:17:52.068Z,21.53
2022-10-19T01:20:18.692Z,24.80
2022-10-19T01:23:03.130Z,19.60
2022-10-19T01:25:44.807Z,23.47
2022-10-19T01:28:45.048Z,23.93
2022-10-19T01:31:26.481Z,19.67
2022-10-19T01:34:11.633Z,21.73
2022-10-19T01:37:15.697Z,20.77
2022-10-19T01:39:51.253Z,23.10
2022-10-19T01:42:44.651Z,20.43
2022-10-19T01:45:39.452Z,23.60
2022-10-19T01:48:16.711Z,20.17
2022-10-19T01:50:49.511Z,20.17
2022-10-19T01:53:18.992Z,26.70
2022-10-19T01:55:50.295Z,19.37
2022-10-19T01:58:21.350Z,21.33
2022-10-19T02:00:49.884Z,15.70
2022-10-19T02:03:17.947Z,17.80
2022-10-19T02:05:47.101Z,16.67
2022-10-19T02:08:18.232Z,23.70
2022-10-19T02:10:46.415Z,16.80
2022-10-19T02:13:15.356Z,17.40
2022-10-19T02:15:46.607Z,17.43
2022-10-19T02:18:18.103Z,16.63
2022-10-19T02:20:45.393Z,17.23
2022-10-19T02:23:14.036Z,15.50
2022-10-19T02:25:40.785Z,17.93
2022-10-19T02:28:07.492Z,18.43
2022-10-19T02:30:34.218Z,20.83
2022-10-19T02:33:00.949Z,16.53
2022-10-19T02:35:28.118Z,23.27
2022-10-19T02:37:58.247Z,15.73
2022-10-19T02:40:25.791Z,15.90
2022-10-19T02:42:57.677Z,24.47
2022-10-19T02:45:29.825Z,18.57
2022-10-19T02:48:02.049Z,23.60
2022-10-19T02:50:29.154Z,18.47
2022-10-19T02:52:57.984Z,15.43
2022-10-19T02:55:24.828Z,20.07
2022-10-19T02:57:51.491Z,19.07
2022-10-19T03:00:18.181Z,14.83
2022-10-19T03:02:44.822Z,17.33
2022-10-19T03:05:11.464Z,16.30
2022-10-19T03:07:38.136Z,16.40
2022-10-19T03:10:05.079Z,18.27
2022-10-19T03:12:31.745Z,13.83
2022-10-19T03:14:58.436Z,12.73
2022-10-19T03:17:25.098Z,15.00
2022-10-19T03:19:51.766Z,19.57
2022-10-19T03:22:18.409Z,19.30
2022-10-19T03:24:45.106Z,15.20
2022-10-19T03:27:11.778Z,16.70
2022-10-19T03:29:38.426Z,19.73
2022-10-19T03:32:05.305Z,15.90
2022-10-19T03:34:32.077Z,22.17
2022-10-19T03:36:59.308Z,23.57
2022-10-19T03:39:26.282Z,17.20
2022-10-19T03:41:52.980Z,23.83
2022-10-19T03:44:19.672Z,23.23
2022-10-19T03:46:46.469Z,20.23
2022-10-19T03:49:13.218Z,17.53
2022-10-19T03:51:39.951Z,16.47
2022-10-19T03:54:09.142Z,24.13
2022-10-19T03:56:36.427Z,20.73
2022-10-19T03:59:05.557Z,15.47
2022-10-19T04:01:38.452Z,16.40
2022-10-19T04:04:09.657Z,16.60
2022-10-19T04:06:39.117Z,15.07
2022-10-19T04:09:07.614Z,18.60
2022-10-19T04:11:35.508Z,18.37
2022-10-19T04:14:02.461Z,16.70
2022-10-19T04:16:30.605Z,15.10
2022-10-19T04:18:57.760Z,15.10
2022-10-19T04:21:50.534Z,13.93
2022-10-19T04:24:18.740Z,25.40
2022-10-19T04:26:53.838Z,15.33
2022-10-19T04:29:25.059Z,13.73
2022-10-19T04:31:54.674Z,13.50
2022-10-19T04:34:21.340Z,19.23
2022-10-19T04:36:48.395Z,17.03
2022-10-19T04:39:15.165Z,18.80
2022-10-19T04:41:41.872Z,19.53
2022-10-19T04:44:09.459Z,16.07
2022-10-19T04:46:37.326Z,17.37
2022-10-19T04:49:06.076Z,17.73
2022-10-19T04:51:33.139Z,14.27
2022-10-19T04:54:00.316Z,17.43
2022-10-19T04:56:27.868Z,14.87
2022-10-19T04:58:56.714Z,14.97
2022-10-19T05:01:24.429Z,17.70
2022-10-19T05:06:28.190Z,16.37
2022-10-19T05:08:55.355Z,22.07
2022-10-19T05:11:22.329Z,14.67
2022-10-19T05:13:49.431Z,17.37
2022-10-19T05:16:18.953Z,22.17
2022-10-19T05:18:55.962Z,24.10
2022-10-19T05:21:23.101Z,22.97
2022-10-19T05:23:52.640Z,18.77
2022-10-19T05:26:21.141Z,16.27
2022-10-19T05:28:56.361Z,16.33
2022-10-19T05:31:28.512Z,22.93
2022-10-19T05:33:56.311Z,23.30
2022-10-19T05:36:27.785Z,20.50
2022-10-19T05:38:56.809Z,13.60
2022-10-19T05:41:24.906Z,19.20
2022-10-19T05:43:56.631Z,21.53
2022-10-19T05:46:24.491Z,26.63
2022-10-19T05:48:51.580Z,17.30
2022-10-19T05:51:20.272Z,19.37
2022-10-19T05:53:47.644Z,18.80
2022-10-19T05:56:20.825Z,17.33
2022-10-19T05:58:47.987Z,20.83
2022-10-19T06:01:16.270Z,26.77
2022-10-19T06:03:42.916Z,21.53
2022-10-19T06:06:10.062Z,20.20
2022-10-19T06:08:37.973Z,19.87
2022-10-19T06:11:35.014Z,16.97
2022-10-19T06:14:04.066Z,14.50
2022-10-19T06:16:31.927Z,17.57
2022-10-19T06:18:59.258Z,13.67
2022-10-19T06:21:29.022Z,18.10
2022-10-19T06:24:02.337Z,14.33
2022-10-19T06:26:30.780Z,16.13
2022-10-19T06:29:00.387Z,16.57
2022-10-19T06:31:31.639Z,21.10
2022-10-19T06:33:58.556Z,21.23
2022-10-19T06:36:27.664Z,14.77
2022-10-19T06:38:54.968Z,23.13
2022-10-19T06:41:21.709Z,17.13
2022-10-19T06:43:53.570Z,21.43
2022-10-19T06:46:23.181Z,20.13
2022-10-19T06:48:54.525Z,19.37
2022-10-19T06:51:21.761Z,18.23
2022-10-19T06:53:51.691Z,21.27
2022-10-19T06:56:21.364Z,18.97
2022-10-19T06:58:49.883Z,28.30
2022-10-19T07:01:16.816Z,27.43
2022-10-19T07:03:43.902Z,31.80
2022-10-19T07:06:12.489Z,28.40
2022-10-19T07:08:41.041Z,23.40
2022-10-19T07:11:10.956Z,20.60
2022-10-19T07:13:38.083Z,22.67
2022-10-19T07:16:07.834Z,19.23
2022-10-19T07:18:36.233Z,19.60
2022-10-19T07:21:06.077Z,21.47
2022-10-19T07:23:34.430Z,16.70
2022-10-19T07:26:11.921Z,15.27
2022-10-19T07:28:40.235Z,16.07
2022-10-19T07:31:13.173Z,15.37
2022-10-19T07:33:40.040Z,18.80
2022-10-19T07:36:08.929Z,13.00
2022-10-19T07:38:36.907Z,13.43
2022-10-19T07:41:04.019Z,15.67
2022-10-19T07:43:30.760Z,11.50
2022-10-19T07:45:59.053Z,16.27
2022-10-19T07:48:26.164Z,17.97
2022-10-19T07:50:53.071Z,16.63
2022-10-19T07:53:20.207Z,15.33
2022-10-19T07:55:46.834Z,15.27
2022-10-19T07:58:13.873Z,14.50
2022-10-19T08:03:43.645Z,14.47
2022-10-19T08:06:08.940Z,11.93
2022-10-19T08:08:36.290Z,13.33
2022-10-19T08:11:09.967Z,17.43
2022-10-19T08:13:37.364Z,13.80
2022-10-19T08:16:04.811Z,19.03
2022-10-19T08:21:03.643Z,18.67
2022-10-19T08:23:30.752Z,10.23
2022-10-19T08:25:59.373Z,14.40
2022-10-19T08:28:26.036Z,15.23
2022-10-19T08:30:57.914Z,11.73
2022-10-19T08:33:25.884Z,15.90
2022-10-19T08:35:53.983Z,12.30
2022-10-19T08:38:21.000Z,13.70
2022-10-19T08:40:48.199Z,12.17
2022-10-19T08:43:32.873Z,15.20
2022-10-19T08:46:20.513Z,10.37
2022-10-19T08:48:47.176Z,9.17
2022-10-19T08:51:14.436Z,12.87
2022-10-19T08:53:51.536Z,10.50
2022-10-19T08:56:49.362Z,16.43
2022-10-19T08:59:32.560Z,15.70
2022-10-19T09:02:11.226Z,11.17
2022-10-19T09:04:42.247Z,15.07
2022-10-19T09:07:31.067Z,8.83
2022-10-19T09:10:00.129Z,12.03
2022-10-19T09:12:46.453Z,10.50
2022-10-19T09:15:17.764Z,8.33
2022-10-19T09:17:44.499Z,12.20
2022-10-19T09:20:25.117Z,7.23
2022-10-19T09:23:20.707Z,12.63
2022-10-19T09:25:50.380Z,10.30
2022-10-19T09:28:43.263Z,10.77
2022-10-19T09:31:38.285Z,10.67
2022-10-19T09:34:21.768Z,8.17
2022-10-19T09:36:57.024Z,11.13
2022-10-19T09:39:28.655Z,8.77
2022-10-19T09:42:05.306Z,11.23
2022-10-19T09:44:32.554Z,8.17
2022-10-19T09:47:17.290Z,9.87
2022-10-19T09:49:47.680Z,7.57
2022-10-19T09:52:37.019Z,8.87
2022-10-19T09:55:22.380Z,8.47
2022-10-19T09:57:58.291Z,13.77
2022-10-19T10:00:32.077Z,9.37
2022-10-19T10:02:59.235Z,9.87
2022-10-19T10:05:40.022Z,11.43
2022-10-19T10:08:19.997Z,6.97
2022-10-19T10:10:53.526Z,7.20
2022-10-19T10:13:23.746Z,10.77
2022-10-19T10:15:56.496Z,10.30
2022-10-19T10:18:24.798Z,11.63
2022-10-19T10:21:13.300Z,7.30
2022-10-19T10:23:40.406Z,6.33
2022-10-19T10:26:18.515Z,8.30
2022-10-19T10:28:51.047Z,9.57
2022-10-19T10:31:27.355Z,9.80
2022-10-19T10:34:12.310Z,8.60
2022-10-19T10:36:53.612Z,8.40
2022-10-19T10:39:20.718Z,8.60
2022-10-19T10:41:48.756Z,11.93
2022-10-19T10:44:20.629Z,19.67
2022-10-19T10:46:56.255Z,9.73
2022-10-19T10:49:29.037Z,11.50
2022-10-19T10:52:04.363Z,5.67
2022-10-19T10:54:32.647Z,7.13
2022-10-19T10:57:12.987Z,10.43
2022-10-19T11:00:01.092Z,6.70
2022-10-19T11:02:46.230Z,9.03
2022-10-19T11:05:30.930Z,5.83
2022-10-19T11:08:12.676Z,8.57
2022-10-19T11:11:13.941Z,9.63
2022-10-19T11:14:07.919Z,8.37
2022-10-19T11:16:44.109Z,8.10
2022-10-19T11:19:33.240Z,6.03
2022-10-19T11:22:17.833Z,7.33
2022-10-19T11:25:12.989Z,9.27
2022-10-19T11:27:56.441Z,6.60
2022-10-19T11:30:25.438Z,8.07
2022-10-19T11:33:18.340Z,8.50
2022-10-19T11:35:56.681Z,7.07
2022-10-19T11:38:53.884Z,7.57
2022-10-19T11:41:35.836Z,6.27
2022-10-19T11:44:30.935Z,6.40
2022-10-19T11:47:18.968Z,5.30
2022-10-19T11:49:54.702Z,5.53
2022-10-19T11:52:34.537Z,6.40
2022-10-19T11:55:22.543Z,8.60
2022-10-19T11:58:08.292Z,7.80
2022-10-19T12:00:50.505Z,5.80
2022-10-19T12:03:54.620Z,11.47
2022-10-19T12:06:28.476Z,8.90
2022-10-19T12:09:16.474Z,8.70
2022-10-19T12:11:48.917Z,5.70
2022-10-19T12:14:22.311Z,8.30
2022-10-19T12:17:01.014Z,5.47
2022-10-19T12:19:36.886Z,6.30
2022-10-19T12:22:06.162Z,8.80
2022-10-19T12:24:35.136Z,7.57
2022-10-19T12:27:02.142Z,6.93
2022-10-19T12:29:36.189Z,6.97
2022-10-19T12:32:04.556Z,6.97
2022-10-19T12:34:59.130Z,10.87
2022-10-19T12:37:34.988Z,10.67
2022-10-19T12:40:26.364Z,9.67
2022-10-19T12:43:01.776Z,8.80
2022-10-19T12:45:35.742Z,5.67
2022-10-19T12:48:08.589Z,5.93
2022-10-19T12:50:50.346Z,7.63
2022-10-19T12:53:40.037Z,7.10
2022-10-19T12:56:09.754Z,6.07
2022-10-19T12:58:47.882Z,6.17
2022-10-19T13:01:33.668Z,6.87
2022-10-19T13:04:23.532Z,9.03
2022-10-19T13:06:51.831Z,7.73
2022-10-19T13:09:31.587Z,7.30
2022-10-19T13:12:16.276Z,8.50
2022-10-19T13:14:54.294Z,5.07
2022-10-19T13:17:36.855Z,8.80
2022-10-19T13:20:16.104Z,7.50
2022-10-19T13:23:03.523Z,9.77
2022-10-19T13:25:40.841Z,6.80
2022-10-19T13:28:07.597Z,7.93
2022-10-19T13:30:41.740Z,9.33
2022-10-19T13:33:32.117Z,10.70
2022-10-19T13:35:58.749Z,5.23
2022-10-19T13:38:26.421Z,6.80
2022-10-19T13:41:03.020Z,7.03
2022-10-19T13:43:31.959Z,6.97
2022-10-19T13:46:12.941Z,5.80
2022-10-19T13:49:01.697Z,5.83
2022-10-19T13:51:46.709Z,9.50
2022-10-19T13:54:19.187Z,6.10
2022-10-19T13:57:16.301Z,7.23
2022-10-19T14:00:19.681Z,7.03
2022-10-19T14:02:59.621Z,5.77
2022-10-19T14:05:49.311Z,8.03
2022-10-19T14:08:44.828Z,6.03
2022-10-19T14:11:21.644Z,7.77
2022-10-19T14:14:07.669Z,6.30
2022-10-19T14:16:34.515Z,8.50
2022-10-19T14:19:01.282Z,6.80
2022-10-19T14:21:36.840Z,7.03
2022-10-19T14:24:18.581Z,5.00
2022-10-19T14:26:46.642Z,6.70
2022-10-19T14:29:13.888Z,9.40
2022-10-19T14:31:40.700Z,5.17
2022-10-19T14:34:09.235Z,8.27
2022-10-19T14:36:44.037Z,6.63
2022-10-19T14:39:32.393Z,5.00
2022-10-19T14:42:10.664Z,6.73
2022-10-19T14:44:40.864Z,6.70
2022-10-19T14:47:18.284Z,8.00
2022-10-19T14:49:45.245Z,5.23
2022-10-19T14:52:17.074Z,6.37
2022-10-19T14:54:47.565Z,5.53
2022-10-19T14:57:31.413Z,6.27
2022-10-19T15:00:15.316Z,4.90
2022-10-19T15:02:47.001Z,4.73
2022-10-19T15:05:23.867Z,5.50
2022-10-19T15:07:51.221Z,7.00
2022-10-19T15:10:25.049Z,6.90
2022-10-19T15:12:57.654Z,5.83
2022-10-19T15:15:28.552Z,6.57
2022-10-19T15:18:06.676Z,7.00
2022-10-19T15:20:44.159Z,8.00
2022-10-19T15:23:40.643Z,6.60
2022-10-19T15:26:17.166Z,5.47
2022-10-19T15:28:44.774Z,4.77
2022-10-19T15:31:26.380Z,5.27
2022-10-19T15:33:55.949Z,5.13
2022-10-19T15:36:23.946Z,10.10
2022-10-19T15:41:54.495Z,3.60
2022-10-19T15:44:41.970Z,4.27
2022-10-19T15:47:20.364Z,6.07
2022-10-19T15:49:50.223Z,8.83
2022-10-19T15:52:19.086Z,5.03
2022-10-19T15:54:50.059Z,9.67
2022-10-19T15:57:25.919Z,7.90
2022-10-19T15:59:53.258Z,4.13
2022-10-19T16:02:20.014Z,7.27
2022-10-19T16:04:46.766Z,6.83
2022-10-19T16:07:19.607Z,6.83
2022-10-19T16:09:46.287Z,5.50
2022-10-19T16:12:12.951Z,7.47
2022-10-19T16:14:39.656Z,10.93
2022-10-19T16:17:06.396Z,6.47
2022-10-19T16:19:33.087Z,5.07
2022-10-19T16:21:59.719Z,7.13
2022-10-19T16:24:26.444Z,4.80
2022-10-19T16:26:53.099Z,7.20
2022-10-19T16:29:19.852Z,5.03
2022-10-19T16:31:46.513Z,18.47
2022-10-19T16:34:13.296Z,9.20
2022-10-19T16:36:39.947Z,7.90
2022-10-19T16:39:06.765Z,7.40
2022-10-19T16:41:33.487Z,6.20
2022-10-19T16:44:00.240Z,9.07
2022-10-19T16:46:27.237Z,6.30
2022-10-19T16:48:54.364Z,3.90
2022-10-19T16:51:37.165Z,5.67
2022-10-19T16:54:05.332Z,8.30
2022-10-19T16:56:32.803Z,7.13
2022-10-19T16:59:02.896Z,4.83
2022-10-19T17:01:30.247Z,5.57
2022-10-19T17:03:57.559Z,6.40
2022-10-19T17:06:24.899Z,6.57
2022-10-19T17:09:29.926Z,6.63
2022-10-19T17:11:40.285Z,5.33
2022-10-19T17:14:10.727Z,4.40
2022-10-19T17:16:38.870Z,9.10
2022-10-19T17:19:06.769Z,6.93
2022-10-19T17:21:37.841Z,6.23
2022-10-19T17:24:06.969Z,5.23
2022-10-19T17:26:39.731Z,5.93
2022-10-19T17:29:07.586Z,7.07
2022-10-19T17:31:37.459Z,6.63
2022-10-19T17:34:04.941Z,8.17
2022-10-19T17:36:35.825Z,9.70
2022-10-19T17:39:06.585Z,7.37
2022-10-19T17:41:33.601Z,7.73
2022-10-19T17:44:00.465Z,6.30
2022-10-19T17:46:29.789Z,5.60
2022-10-19T17:48:57.901Z,6.57
2022-10-19T17:51:28.829Z,6.60
2022-10-19T17:54:05.315Z,8.47
2022-10-19T17:56:32.326Z,7.93
2022-10-19T17:58:59.705Z,7.30
2022-10-19T18:01:26.855Z,7.10
2022-10-19T18:03:53.895Z,7.67
2022-10-19T18:06:31.348Z,7.40
2022-10-19T18:08:59.672Z,7.07
2022-10-19T18:11:28.894Z,5.80
2022-10-19T18:13:58.315Z,5.73
2022-10-19T18:16:26.755Z,8.80
2022-10-19T18:18:56.583Z,5.63
2022-10-19T18:21:25.891Z,6.77
2022-10-19T18:23:53.734Z,9.13
2022-10-19T18:26:23.205Z,8.70
2022-10-19T18:28:52.461Z,5.77
2022-10-19T18:31:22.361Z,4.50
2022-10-19T18:33:54.926Z,6.93
2022-10-19T18:36:21.692Z,6.17
2022-10-19T18:38:57.098Z,7.87
2022-10-19T18:41:24.367Z,5.70
2022-10-19T18:43:53.706Z,7.87
2022-10-19T18:46:22.342Z,7.90
2022-10-19T18:48:49.875Z,8.77
2022-10-19T18:51:18.133Z,7.20
2022-10-19T18:53:45.630Z,5.47
2022-10-19T18:56:14.743Z,6.80
2022-10-19T18:58:41.610Z,7.13
2022-10-19T19:01:18.921Z,5.73
2022-10-19T19:03:47.507Z,5.27
2022-10-19T19:06:18.600Z,4.37
2022-10-19T19:08:45.775Z,10.73
2022-10-19T19:11:21.351Z,5.50
2022-10-19T19:13:56.832Z,6.97
2022-10-19T19:16:24.746Z,9.77
2022-10-19T19:18:51.556Z,9.33
2022-10-19T19:21:24.579Z,8.43
2022-10-19T19:23:52.613Z,7.27
2022-10-19T19:26:20.399Z,5.87
2022-10-19T19:28:49.091Z,9.07
2022-10-19T19:31:19.390Z,9.13
2022-10-19T19:33:47.180Z,6.33
2022-10-19T19:36:16.065Z,10.30
2022-10-19T19:38:43.336Z,9.90
2022-10-19T19:41:13.147Z,9.73
2022-10-19T19:43:40.812Z,9.07
2022-10-19T19:46:12.514Z,6.10
2022-10-19T19:48:41.615Z,5.37
2022-10-19T19:51:16.965Z,7.60
2022-10-19T19:53:44.721Z,5.80
2022-10-19T19:56:13.047Z,4.90
2022-10-19T19:58:40.732Z,8.00
2022-10-19T20:01:19.562Z,7.30
2022-10-19T20:03:47.492Z,6.10
2022-10-19T20:06:18.686Z,5.57
2022-10-19T20:08:47.600Z,7.57
2022-10-19T20:11:17.465Z,7.03
2022-10-19T20:13:45.405Z,7.30
2022-10-19T20:16:15.295Z,9.13
2022-10-19T20:18:44.554Z,7.77
2022-10-19T20:21:12.176Z,6.70
2022-10-19T20:23:38.938Z,6.57
2022-10-19T20:26:06.272Z,6.17
2022-10-19T20:28:33.544Z,11.67
2022-10-19T20:31:05.995Z,10.80
2022-10-19T20:33:35.510Z,5.33
2022-10-19T20:36:07.190Z,6.67
2022-10-19T20:38:35.455Z,9.27
2022-10-19T20:41:08.143Z,7.70
2022-10-19T20:43:37.082Z,5.60
2022-10-19T20:46:11.044Z,7.07
2022-10-19T20:48:37.767Z,6.00
2022-10-19T20:51:19.412Z,3.67
2022-10-19T20:53:49.554Z,8.63
2022-10-19T20:56:18.914Z,4.90
2022-10-19T20:58:45.639Z,6.63
2022-10-19T21:01:19.222Z,6.37
2022-10-19T21:03:52.644Z,5.90
2022-10-19T21:06:21.015Z,5.63
2022-10-19T21:08:48.278Z,8.00
2022-10-19T21:11:35.506Z,7.27
2022-10-19T21:14:05.640Z,7.50
2022-10-19T21:16:33.997Z,6.47
2022-10-19T21:19:02.553Z,7.13
2022-10-19T21:21:35.572Z,6.70
2022-10-19T21:24:15.891Z,9.43
2022-10-19T21:26:42.969Z,7.83
2022-10-19T21:29:11.779Z,7.80
2022-10-19T21:31:43.050Z,7.03
2022-10-19T21:34:14.552Z,11.77
2022-10-19T21:36:41.389Z,7.30
2022-10-19T21:39:08.056Z,8.90
2022-10-19T21:41:34.979Z,14.10
2022-10-19T21:44:02.118Z,8.20
2022-10-19T21:46:28.978Z,7.20
2022-10-19T21:48:56.142Z,6.00
2022-10-19T21:51:26.156Z,7.57
2022-10-19T21:53:55.827Z,8.53
2022-10-19T21:56:22.818Z,7.37
2022-10-19T21:58:51.616Z,9.17
2022-10-19T22:01:20.372Z,9.17
2022-10-19T22:03:47.104Z,6.43
2022-10-19T22:06:14.214Z,9.10
2022-10-19T22:08:45.018Z,8.47
2022-10-19T22:11:13.946Z,7.37
2022-10-19T22:13:41.148Z,6.77
2022-10-19T22:16:10.987Z,12.13
2022-10-19T22:18:38.103Z,8.37
2022-10-19T22:21:07.495Z,7.00
2022-10-19T22:23:34.602Z,7.47
2022-10-19T22:26:01.352Z,7.77
2022-10-19T22:28:28.347Z,7.90
2022-10-19T22:30:56.581Z,9.57
2022-10-19T22:33:23.984Z,11.13
2022-10-19T22:35:55.499Z,7.10
2022-10-19T22:38:22.401Z,9.40
2022-10-19T22:40:49.109Z,9.80
2022-10-19T22:43:16.244Z,9.10
2022-10-19T22:45:43.403Z,9.17
2022-10-19T22:48:10.099Z,8.63
2022-10-19T22:50:37.213Z,7.37
2022-10-19T22:53:03.887Z,8.87
2022-10-19T22:55:31.035Z,9.50
2022-10-19T22:57:57.929Z,10.50
2022-10-19T23:00:24.829Z,11.43
2022-10-19T23:02:51.995Z,10.33
2022-10-19T23:05:19.005Z,11.07
2022-10-19T23:07:46.063Z,9.60
2022-10-19T23:10:13.043Z,9.43
2022-10-19T23:12:39.803Z,8.53
2022-10-19T23:15:07.071Z,14.40
2022-10-19T23:17:34.096Z,12.73
2022-10-19T23:20:00.971Z,9.87
2022-10-19T23:22:27.617Z,12.97
2022-10-19T23:24:54.696Z,12.47
2022-10-19T23:27:21.373Z,10.60
2022-10-19T23:29:48.036Z,9.07
2022-10-19T23:32:15.170Z,10.10
2022-10-19T23:34:44.461Z,10.77
2022-10-19T23:37:14.161Z,9.97
2022-10-19T23:39:41.236Z,11.03
2022-10-19T23:42:07.884Z,14.23
2022-10-19T23:44:34.980Z,10.87
2022-10-19T23:47:02.012Z,13.17
2022-10-19T23:49:28.701Z,9.47
2022-10-19T23:51:55.814Z,12.00
2022-10-19T23:54:22.535Z,12.80
2022-10-19T23:56:49.610Z,11.80
2022-10-19T23:59:16.258Z,10.53
